Time;durP1;ratioP1;P1;durP2;ratioP2;P2;SDS_P1;SDS_P2;PMS_P1;PMS_P2;Temp;Humidity;BMP_temperature;BMP_pressure;BME280_temperature;BME280_humidity;BME280_pressure;Samples;Min_cycle;Max_cycle;Signal;HPM_P1;HPM_P2
2022/05/23 00:03:27;;;;;;;4.90;2.00;;;;;;;15.42;61.02;100852.44;10407168;28;20049;-81
2022/05/23 00:08:29;;;;;;;5.70;1.90;;;;;;;15.37;61.42;100833.41;10416707;28;20057;-82
2022/05/23 00:13:31;;;;;;;4.13;1.88;;;;;;;15.23;61.48;100828.97;10416277;28;20082;-81
2022/05/23 00:18:32;;;;;;;6.35;2.20;;;;;;;15.30;60.50;100823.84;10416049;28;20527;-81
2022/05/23 00:23:34;;;;;;;4.10;1.92;;;;;;;15.26;60.49;100809.97;10414754;28;20120;-80
2022/05/23 00:28:38;;;;;;;4.75;2.00;;;;;;;15.29;60.35;100806.53;10414783;28;20099;-81
2022/05/23 00:39:02;;;;;;;3.67;1.58;;;;;;;15.37;61.24;100786.66;10413609;28;20056;-81
2022/05/23 00:44:05;;;;;;;6.70;1.85;;;;;;;15.39;61.49;100787.53;10413728;28;20065;-81
2022/05/23 00:49:08;;;;;;;4.13;1.77;;;;;;;15.18;62.22;100776.19;10413298;28;20485;-81
2022/05/23 00:54:11;;;;;;;5.63;1.73;;;;;;;15.25;62.09;100758.03;10413515;28;20048;-81
2022/05/23 00:59:17;;;;;;;5.25;2.25;;;;;;;15.11;61.96;100745.88;10414463;28;20049;-80
2022/05/23 01:04:19;;;;;;;2.88;1.70;;;;;;;15.24;61.84;100739.03;10412958;28;20049;-81
2022/05/23 01:09:25;;;;;;;5.00;2.40;;;;;;;15.11;62.69;100724.28;10412608;28;20056;-76
2022/05/23 01:14:48;;;;;;;6.88;2.17;;;;;;;15.08;62.69;100717.31;10412697;28;20061;-76
2022/05/23 01:19:51;;;;;;;4.47;2.20;;;;;;;15.27;61.95;100699.25;10411655;28;20523;-76
2022/05/23 01:25:19;;;;;;;5.70;2.13;;;;;;;15.18;62.18;100697.50;10411884;28;20049;-76
2022/05/23 01:30:23;;;;;;;5.60;2.15;;;;;;;15.01;63.07;100687.91;10411916;28;20055;-76
2022/05/23 01:35:45;;;;;;;7.05;2.50;;;;;;;15.12;62.93;100694.84;10415954;28;20135;-77
2022/05/23 01:40:47;;;;;;;3.90;2.15;;;;;;;15.04;62.82;100692.22;10420968;28;20030;-76
2022/05/23 01:45:55;;;;;;;5.00;2.20;;;;;;;15.10;63.60;100687.06;10416416;28;20140;-77
2022/05/23 01:51:16;;;;;;;8.43;2.63;;;;;;;15.06;62.73;100680.16;10411765;28;20052;-76
2022/05/23 01:56:18;;;;;;;5.70;2.22;;;;;;;15.10;62.95;100679.28;10410158;28;20354;-76
2022/05/23 02:01:40;;;;;;;4.13;2.50;;;;;;;15.19;62.85;100694.03;10412180;28;20048;-77
2022/05/23 02:06:47;;;;;;;6.90;2.63;;;;;;;15.18;62.92;100706.13;10409849;28;20091;-76
2022/05/23 02:12:01;;;;;;;6.13;3.10;;;;;;;15.24;62.97;100692.31;10409292;28;20042;-76
2022/05/23 02:17:11;;;;;;;7.60;2.42;;;;;;;15.12;63.93;100690.53;10409283;28;20148;-76
2022/05/23 02:22:13;;;;;;;5.25;2.95;;;;;;;15.04;63.86;100687.91;10408443;28;20815;-76
2022/05/23 02:27:15;;;;;;;5.47;2.78;;;;;;;15.13;63.67;100692.28;10408457;28;20057;-77
2022/05/23 02:32:17;;;;;;;6.10;3.15;;;;;;;15.07;64.37;100676.69;10408950;28;20405;-76
2022/05/23 02:37:19;;;;;;;7.10;3.25;;;;;;;15.06;64.20;100674.94;10409178;28;20140;-76
2022/05/23 02:42:27;;;;;;;7.78;3.10;;;;;;;15.09;64.69;100669.75;10408637;28;20497;-76
2022/05/23 02:47:31;;;;;;;5.38;3.08;;;;;;;14.96;64.40;100662.78;10408934;28;20049;-77
2022/05/23 02:52:37;;;;;;;8.90;3.20;;;;;;;15.02;64.54;100657.63;10408072;28;20092;-78
2022/05/23 02:57:49;;;;;;;7.80;3.42;;;;;;;15.07;64.06;100655.94;10408686;28;20057;-77
2022/05/23 03:03:03;;;;;;;5.38;3.20;;;;;;;14.90;64.51;100643.75;10408222;28;20140;-78
2022/05/23 03:08:16;;;;;;;6.60;3.10;;;;;;;14.95;64.66;100640.31;10408172;28;20061;-77
2022/05/23 03:13:19;;;;;;;4.88;2.80;;;;;;;14.79;65.21;100619.50;10408246;28;20041;-77
2022/05/23 03:18:22;;;;;;;7.60;3.15;;;;;;;14.74;66.08;100622.06;10407729;28;20083;-77
2022/05/23 03:28:49;;;;;;;6.00;3.38;;;;;;;14.69;65.92;100592.66;10407109;28;20138;-77
2022/05/23 03:33:51;;;;;;;9.82;3.63;;;;;;;14.56;66.55;100583.09;10415850;28;20409;-77
2022/05/23 03:38:53;;;;;;;5.30;3.00;;;;;;;14.51;66.49;100585.66;10415484;28;20500;-77
2022/05/23 03:43:55;;;;;;;5.68;3.28;;;;;;;14.54;67.04;100558.88;10416810;28;20041;-77
2022/05/23 03:48:57;;;;;;;6.63;3.65;;;;;;;14.54;67.28;100559.75;10415075;28;20494;-77
2022/05/23 03:54:02;;;;;;;7.28;3.33;;;;;;;14.55;66.96;100543.34;10415277;28;20042;-78
2022/05/23 03:59:04;;;;;;;6.78;3.75;;;;;;;14.49;67.36;100532.06;10414293;28;20424;-77
2022/05/23 04:04:17;;;;;;;8.88;3.70;;;;;;;14.56;66.89;100524.31;10414980;28;20083;-77
2022/05/23 04:09:39;;;;;;;5.85;3.20;;;;;;;14.65;67.30;100512.25;10415691;28;20046;-76
2022/05/23 04:14:41;;;;;;;5.93;3.80;;;;;;;14.80;66.99;100512.31;10414837;28;20432;-76
2022/05/23 04:19:42;;;;;;;7.30;3.72;;;;;;;14.68;67.22;100514.88;10414085;28;20100;-77
2022/05/23 04:24:51;;;;;;;7.18;3.75;;;;;;;14.76;67.39;100502.81;10414084;28;20148;-77
2022/05/23 04:29:54;;;;;;;6.22;3.70;;;;;;;14.71;67.82;100497.63;10412838;28;20459;-77
2022/05/23 04:35:13;;;;;;;5.30;3.65;;;;;;;14.77;67.99;100483.81;10399208;28;20069;-77
2022/05/23 04:40:20;;;;;;;6.63;4.43;;;;;;;14.86;67.76;100491.56;10412795;28;20414;-77
2022/05/23 04:45:22;;;;;;;7.32;3.95;;;;;;;14.84;67.85;100487.25;10412718;28;20076;-76
2022/05/23 04:50:41;;;;;;;10.60;4.43;;;;;;;14.94;67.11;100482.94;10413221;28;20077;-78
2022/05/23 04:55:43;;;;;;;9.40;4.13;;;;;;;15.09;66.88;100482.94;10413081;28;20045;-78
2022/05/23 05:00:46;;;;;;;7.43;4.03;;;;;;;15.17;67.42;100475.19;10412166;28;20497;-77
2022/05/23 05:05:50;;;;;;;8.07;4.50;;;;;;;15.41;67.30;100471.72;10413151;28;20053;-77
2022/05/23 05:11:10;;;;;;;6.30;3.80;;;;;;;15.43;67.11;100454.41;10412101;28;20046;-77
2022/05/23 05:16:19;;;;;;;7.40;4.07;;;;;;;15.67;67.12;100450.91;10412371;28;20479;-76
2022/05/23 05:21:21;;;;;;;9.23;4.78;;;;;;;15.68;66.54;100449.16;10412715;28;20136;-78
2022/05/23 05:26:45;;;;;;;8.77;4.50;;;;;;;15.71;66.90;100431.81;10415334;28;20080;-78
2022/05/23 05:31:59;;;;;;;9.38;4.72;;;;;;;15.77;65.98;100437.91;10426379;28;20072;-77
2022/05/23 05:37:06;;;;;;;7.20;4.25;;;;;;;15.92;66.49;100424.88;10414932;28;20049;-76
2022/05/23 05:42:15;;;;;;;13.73;4.45;;;;;;;16.04;66.23;100428.28;10410840;28;20136;-78
2022/05/23 05:47:20;;;;;;;8.10;4.53;;;;;;;16.31;66.93;100422.09;10411858;28;20057;-77
2022/05/23 05:52:35;;;;;;;10.77;5.32;;;;;;;16.45;66.10;100415.09;10410771;28;20124;-77
2022/05/23 05:57:37;;;;;;;11.27;4.70;;;;;;;16.55;65.84;100415.03;10410587;28;20416;-77
2022/05/23 06:02:41;;;;;;;7.82;4.90;;;;;;;16.91;66.80;100397.41;10409941;28;20044;-77
2022/05/23 06:13:17;;;;;;;7.93;4.35;;;;;;;16.81;66.20;100387.06;10410098;28;20042;-78
2022/05/23 06:18:33;;;;;;;10.35;5.47;;;;;;;17.06;65.66;100392.13;10410224;28;20060;-77
2022/05/23 06:23:37;;;;;;;9.88;4.85;;;;;;;17.34;65.52;100384.03;10393321;28;20045;-77
2022/05/23 06:28:57;;;;;;;6.93;4.47;;;;;;;17.48;65.84;100377.81;10408485;28;20156;-77
2022/05/23 06:33:59;;;;;;;7.05;4.35;;;;;;;17.58;65.16;100376.81;10409254;28;20048;-78
2022/05/23 06:39:01;;;;;;;5.68;4.35;;;;;;;17.69;64.92;100372.34;10408787;28;20080;-78
2022/05/23 06:44:21;;;;;;;;;;;;;;;17.83;64.06;100364.38;10410708;28;20050;-78
2022/05/23 06:50:00;;;;;;;7.35;4.55;;;;;;;18.08;64.46;100351.91;10403864;28;20537;-78
2022/05/23 06:55:41;;;;;;;8.30;4.40;;;;;;;18.62;62.22;100350.22;10283001;28;20153;-78
2022/05/23 07:00:45;;;;;;;9.65;4.80;;;;;;;19.09;61.60;100342.47;10381209;28;20327;-78
2022/05/23 07:16:50;;;;;;;7.75;3.90;;;;;;;19.17;60.01;100327.53;10408146;28;20058;-78
2022/05/23 07:22:02;;;;;;;5.80;3.90;;;;;;;19.22;60.87;100322.22;10407765;28;20057;-78
2022/05/23 07:27:12;;;;;;;8.68;4.75;;;;;;;19.30;60.48;100322.06;10407662;28;20512;-77
2022/05/23 07:32:15;;;;;;;7.80;4.25;;;;;;;19.66;60.40;100310.03;10406802;28;20493;-78
2022/05/23 07:37:18;;;;;;;7.82;4.15;;;;;;;19.50;58.79;100292.94;10407897;28;20053;-78
2022/05/23 07:42:20;;;;;;;6.72;4.00;;;;;;;19.90;58.75;100294.72;10407126;28;20535;-77
2022/05/23 07:47:22;;;;;;;7.28;3.90;;;;;;;19.99;57.41;100282.34;10407481;28;20045;-77
2022/05/23 08:03:41;;;;;;;6.05;3.50;;;;;;;20.76;55.47;100243.81;10384403;28;20060;-78
2022/05/23 08:08:50;;;;;;;7.47;3.53;;;;;;;21.37;56.60;100243.84;10406816;28;20115;-78
2022/05/23 08:13:56;;;;;;;6.68;3.28;;;;;;;21.46;52.33;100247.97;10406982;28;20052;-77
2022/05/23 08:19:01;;;;;;;7.00;3.10;;;;;;;21.85;50.49;100234.56;10412036;28;20055;-78
2022/05/23 08:24:04;;;;;;;6.47;3.28;;;;;;;22.29;51.53;100227.91;10414019;28;20045;-78
2022/05/23 08:29:09;;;;;;;3.97;3.00;;;;;;;23.21;53.36;100222.97;10412908;28;20095;-77
2022/05/23 08:34:31;;;;;;;5.70;3.17;;;;;;;23.20;51.49;100218.63;10413947;28;20063;-78
2022/05/23 08:39:35;;;;;;;4.88;3.20;;;;;;;23.48;48.22;100222.84;10413265;28;20050;-77
2022/05/23 08:44:46;;;;;;;6.97;3.17;;;;;;;24.16;48.62;100217.53;10413463;28;20041;-78
2022/05/23 08:50:15;;;;;;;4.95;2.90;;;;;;;22.89;49.45;100211.88;10412827;28;20049;-78
2022/05/23 08:55:28;;;;;;;5.20;3.38;;;;;;;22.46;50.64;100204.59;10430256;28;20052;-78
2022/05/23 09:00:56;;;;;;;7.15;2.88;;;;;;;22.34;50.96;100205.00;10413227;28;20520;-78
2022/05/23 09:06:31;;;;;;;6.18;3.40;;;;;;;22.60;52.92;100195.41;10412830;28;20045;-77
2022/05/23 09:11:41;;;;;;;5.07;2.78;;;;;;;23.00;50.33;100186.06;10412296;28;20125;-78
2022/05/23 09:16:49;;;;;;;4.90;2.53;;;;;;;23.67;48.68;100183.53;10412713;28;20068;-78
2022/05/23 09:22:13;;;;;;;5.75;3.00;;;;;;;23.16;46.88;100178.44;10395435;28;20123;-80
2022/05/23 09:27:20;;;;;;;6.95;2.80;;;;;;;24.10;45.36;100144.09;10412122;28;20073;-79
2022/05/23 09:32:26;;;;;;;5.00;3.00;;;;;;;23.16;47.12;100161.81;10412548;28;20064;-78
2022/05/23 09:37:39;;;;;;;4.45;2.90;;;;;;;24.33;46.19;100151.00;10412534;28;20052;-78
2022/05/23 09:48:07;;;;;;;3.10;2.50;;;;;;;23.49;45.70;100132.56;10411763;28;20412;-79
2022/05/23 09:53:16;;;;;;;7.40;2.95;;;;;;;24.03;46.91;100118.03;10412229;28;20045;-78
2022/05/23 09:58:32;;;;;;;7.72;2.88;;;;;;;23.58;46.83;100112.00;10409894;28;20103;-78
2022/05/23 10:03:37;;;;;;;6.07;2.63;;;;;;;23.68;47.07;100112.47;10387407;28;20508;-78
2022/05/23 10:08:44;;;;;;;5.00;2.88;;;;;;;23.90;47.27;100080.00;10411355;28;20087;-78
2022/05/23 10:14:03;;;;;;;4.05;3.00;;;;;;;24.42;45.25;100079.53;10410360;28;20521;-79
2022/05/23 10:19:06;;;;;;;6.28;3.60;;;;;;;23.93;47.82;100074.66;10409647;28;20049;-78
2022/05/23 10:24:10;;;;;;;5.50;3.78;;;;;;;23.95;46.79;100064.91;10409566;28;20044;-79
2022/05/23 10:29:24;;;;;;;8.10;3.20;;;;;;;23.49;47.86;100056.31;10408736;28;20041;-79
2022/05/23 10:34:41;;;;;;;5.82;3.50;;;;;;;24.30;47.09;100045.84;10409575;28;20055;-78
2022/05/23 10:45:24;;;;;;;9.70;3.50;;;;;;;23.99;48.58;100029.66;10410356;28;20048;-78
2022/05/23 10:50:33;;;;;;;5.60;2.97;;;;;;;23.96;46.95;100021.06;10409725;28;20041;-79
2022/05/23 10:55:58;;;;;;;5.88;2.92;;;;;;;24.36;47.70;100004.31;10425499;28;20052;-78
2022/05/23 11:01:08;;;;;;;8.52;2.30;;;;;;;24.19;46.14;100009.50;10407519;28;20080;-79
2022/05/23 11:06:29;;;;;;;4.53;2.40;;;;;;;23.88;46.71;100014.31;10409793;28;20095;-79
2022/05/23 11:12:03;;;;;;;6.88;2.40;;;;;;;23.68;45.72;100004.66;10407921;28;20057;-78
2022/05/23 11:17:53;;;;;;;4.57;2.40;;;;;;;23.64;46.72;99984.69;10409381;28;20057;-78
2022/05/23 11:23:13;;;;;;;4.18;2.00;;;;;;;23.84;46.38;99977.69;10407548;28;20100;-78
2022/05/23 11:33:46;;;;;;;;;;;;;;;23.72;50.10;99953.63;10409696;28;20045;-78
2022/05/23 11:38:50;;;;;;;4.53;1.83;;;;;;;23.79;49.61;99934.97;10408736;28;20376;-78
2022/05/23 11:43:52;;;;;;;3.78;2.08;;;;;;;23.58;47.67;99933.22;10408851;28;20571;-79
2022/05/23 11:49:00;;;;;;;8.52;2.15;;;;;;;23.96;46.43;99927.19;10407654;28;20412;-79
2022/05/23 11:54:09;;;;;;;4.50;1.98;;;;;;;24.26;46.79;99923.22;10414698;28;20050;-79
2022/05/23 11:59:25;;;;;;;4.50;2.22;;;;;;;24.68;45.03;99901.94;10414752;28;20049;-79
2022/05/23 12:04:26;;;;;;;6.30;1.98;;;;;;;26.21;45.16;99892.34;10415361;28;20045;-78
2022/05/23 12:09:34;;;;;;;5.53;2.00;;;;;;;25.34;41.59;99889.84;10414640;28;20049;-79
2022/05/23 12:14:36;;;;;;;4.60;1.60;;;;;;;26.20;43.15;99864.25;10415968;28;20041;-78
2022/05/23 12:19:38;;;;;;;3.75;1.83;;;;;;;25.94;43.51;99854.16;10415406;28;20045;-79
2022/05/23 12:24:58;;;;;;;2.78;1.75;;;;;;;25.99;44.60;99851.25;10414711;28;20046;-79
2022/05/23 12:30:24;;;;;;;3.65;1.77;;;;;;;25.90;41.66;99849.13;10413791;28;20051;-77
2022/05/23 12:35:40;;;;;;;2.85;1.67;;;;;;;26.28;41.67;99836.47;10414509;28;20049;-78
2022/05/23 12:41:04;;;;;;;5.35;2.00;;;;;;;25.97;40.96;99819.66;10415035;28;20049;-80
2022/05/23 12:46:17;;;;;;;5.15;2.40;;;;;;;26.34;41.74;99800.06;10414888;28;20041;-79
2022/05/23 12:51:42;;;;;;;4.00;1.60;;;;;;;26.76;41.79;99790.63;10412828;28;20056;-79
2022/05/23 12:57:21;;;;;;;6.05;1.90;;;;;;;26.01;41.77;99774.66;10413562;28;20088;-78
2022/05/23 13:02:43;;;;;;;3.22;1.80;;;;;;;25.76;42.96;99776.88;10413232;28;20049;-76
2022/05/23 13:07:54;;;;;;;5.25;1.95;;;;;;;25.98;43.07;99765.97;10414116;28;20132;-78
2022/05/23 13:13:04;;;;;;;4.15;1.83;;;;;;;25.76;43.47;99754.91;10414087;28;20041;-78
2022/05/23 13:23:46;;;;;;;4.50;1.80;;;;;;;25.71;44.21;99756.97;10413648;28;20052;-78
2022/05/23 13:28:53;;;;;;;3.83;1.80;;;;;;;25.73;44.63;99745.38;10412346;28;20049;-78
2022/05/23 13:33:57;;;;;;;6.10;1.85;;;;;;;25.30;43.17;99738.03;10413063;28;20079;-77
2022/05/23 13:39:07;;;;;;;2.75;1.90;;;;;;;25.22;44.55;99734.94;10410782;28;20057;-77
2022/05/23 13:44:20;;;;;;;7.40;1.60;;;;;;;25.09;45.10;99726.00;10428040;28;20388;-78
2022/05/23 13:49:35;;;;;;;5.97;1.73;;;;;;;24.84;45.64;99719.38;10427226;28;20281;-78
2022/05/23 13:54:54;;;;;;;4.30;1.90;;;;;;;24.45;46.21;99718.72;10425799;28;20037;-79
2022/05/23 14:00:02;;;;;;;4.25;1.70;;;;;;;24.16;47.49;99713.13;10411737;28;20057;-79
2022/05/23 14:05:13;;;;;;;7.85;2.05;;;;;;;24.16;48.85;99712.31;10411379;28;20045;-79
2022/05/23 14:10:27;;;;;;;6.25;2.30;;;;;;;24.19;48.74;99713.00;10410858;28;20041;-79
2022/05/23 14:15:30;;;;;;;4.97;2.25;;;;;;;24.24;50.77;99702.22;10410145;28;20041;-78
2022/05/23 14:20:34;;;;;;;8.13;2.17;;;;;;;24.44;49.62;99685.41;10411092;28;20053;-79
2022/05/23 14:25:45;;;;;;;5.57;2.15;;;;;;;24.36;49.04;99677.94;10409884;28;20043;-79
2022/05/23 14:30:50;;;;;;;5.35;2.08;;;;;;;24.35;51.34;99662.22;10412164;28;20041;-79
2022/05/23 14:35:56;;;;;;;4.00;2.28;;;;;;;24.42;50.07;99660.09;10410856;28;20049;-79
2022/05/23 14:41:09;;;;;;;4.82;2.17;;;;;;;24.32;50.32;99650.03;10410121;28;20060;-79
2022/05/23 14:46:17;;;;;;;5.18;2.53;;;;;;;24.19;51.93;99649.84;10408927;28;20056;-79
2022/05/23 14:51:28;;;;;;;6.95;2.70;;;;;;;24.06;51.92;99622.44;10409585;28;20061;-79
2022/05/23 14:56:37;;;;;;;7.25;2.70;;;;;;;24.23;52.44;99619.81;10408626;28;20091;-79
2022/05/23 15:01:41;;;;;;;4.53;2.50;;;;;;;23.88;55.26;99614.53;10408743;28;20054;-76
2022/05/23 15:06:43;;;;;;;13.52;2.90;;;;;;;23.50;57.18;99609.38;10409764;28;20100;-79
2022/05/23 15:11:44;;;;;;;4.65;2.90;;;;;;;23.29;59.33;99613.88;10407996;28;20046;-79
2022/05/23 15:16:47;;;;;;;10.05;2.95;;;;;;;22.95;60.74;99612.81;10410015;28;20034;-79
2022/05/23 15:21:49;;;;;;;5.10;3.15;;;;;;;22.88;60.94;99614.03;10408823;28;20041;-79
2022/05/23 15:26:51;;;;;;;6.63;3.28;;;;;;;22.60;63.73;99608.25;10411463;28;20045;-79
2022/05/23 15:31:55;;;;;;;6.65;3.30;;;;;;;22.43;63.35;99595.88;10416911;28;20528;-79
2022/05/23 15:36:57;;;;;;;6.32;3.25;;;;;;;22.58;63.78;99588.25;10417633;28;20068;-79
2022/05/23 15:42:01;;;;;;;6.07;3.58;;;;;;;22.41;63.76;99587.22;10416839;28;20042;-79
2022/05/23 15:47:08;;;;;;;6.13;3.47;;;;;;;22.44;63.47;99581.84;10415546;28;20057;-79
2022/05/23 15:52:10;;;;;;;5.35;3.45;;;;;;;22.42;63.22;99578.44;10417833;28;20042;-79
2022/05/23 15:57:34;;;;;;;7.25;3.20;;;;;;;22.27;63.52;99579.09;10416884;28;20049;-79
2022/05/23 16:02:37;;;;;;;6.88;3.47;;;;;;;22.43;62.32;99572.28;10408338;28;20049;-79
2022/05/23 16:07:39;;;;;;;6.22;3.00;;;;;;;22.39;63.19;99568.06;10416602;28;20496;-79
2022/05/23 16:12:46;;;;;;;10.55;3.22;;;;;;;22.49;63.04;99563.25;10415762;28;20060;-80
2022/05/23 16:17:51;;;;;;;10.13;3.38;;;;;;;22.56;62.74;99559.47;10415822;28;20528;-79
2022/05/23 16:22:53;;;;;;;7.40;2.85;;;;;;;22.64;62.73;99538.09;10415610;28;20057;-79
2022/05/23 16:27:55;;;;;;;8.68;3.28;;;;;;;22.60;63.38;99532.13;10413395;28;20083;-79
2022/05/23 16:38:21;;;;;;;6.15;3.20;;;;;;;22.70;63.61;99519.44;10414066;28;20056;-79
2022/05/23 16:43:23;;;;;;;10.65;3.22;;;;;;;22.58;64.18;99509.50;10415091;28;20085;-80
2022/05/23 16:48:25;;;;;;;11.68;3.45;;;;;;;22.78;63.71;99491.03;10414366;28;20096;-79
2022/05/23 16:53:28;;;;;;;10.52;4.53;;;;;;;22.69;64.01;99475.72;10413915;28;20496;-79
2022/05/23 16:58:30;;;;;;;8.02;3.58;;;;;;;22.32;64.56;99487.91;10414045;28;20052;-79
2022/05/23 17:03:32;;;;;;;9.85;3.78;;;;;;;22.00;66.39;99483.19;10414452;28;20049;-80
2022/05/23 17:08:39;;;;;;;9.27;4.00;;;;;;;22.06;66.52;99489.94;10414719;28;20040;-79
2022/05/23 17:13:41;;;;;;;8.02;3.60;;;;;;;22.05;67.13;99498.72;10414058;28;20041;-79
2022/05/23 17:18:46;;;;;;;7.93;4.18;;;;;;;21.86;67.80;99499.50;10429392;28;20116;-79
2022/05/23 17:23:48;;;;;;;8.05;4.10;;;;;;;21.44;71.09;99505.63;10413814;28;20038;-80
2022/05/23 17:28:50;;;;;;;9.30;3.65;;;;;;;21.16;72.86;99517.25;10412650;28;20060;-79
2022/05/23 17:33:53;;;;;;;11.07;4.30;;;;;;;20.67;74.55;99513.88;10429122;28;20034;-79
2022/05/23 17:38:55;;;;;;;7.85;4.05;;;;;;;20.45;75.42;99522.53;10413107;28;20041;-80
2022/05/23 17:43:57;;;;;;;7.45;3.97;;;;;;;20.51;75.66;99519.72;10414256;28;20564;-79
2022/05/23 17:48:58;;;;;;;8.02;4.00;;;;;;;20.83;74.54;99515.03;10414718;28;20057;-79
2022/05/23 17:54:00;;;;;;;10.43;4.40;;;;;;;20.60;74.79;99508.06;10413558;28;20374;-79
2022/05/23 17:59:03;;;;;;;8.45;4.20;;;;;;;20.33;76.39;99515.16;10409919;28;20054;-80
2022/05/23 18:04:05;;;;;;;8.45;4.13;;;;;;;20.42;75.89;99505.22;10412237;28;20056;-79
2022/05/23 18:09:07;;;;;;;8.07;4.10;;;;;;;20.73;74.95;99518.94;10411537;28;20083;-78
2022/05/23 18:19:29;;;;;;;11.48;5.20;;;;;;;19.99;79.47;99548.59;10411549;28;20137;-79
2022/05/23 18:24:31;;;;;;;10.57;7.03;;;;;;;19.62;79.48;99545.44;10409952;28;20497;-80
2022/05/23 18:29:34;;;;;;;15.68;7.88;;;;;;;19.52;79.64;99544.06;10410416;28;20508;-79
2022/05/23 18:34:37;;;;;;;13.35;8.50;;;;;;;19.53;79.80;99545.75;10409810;28;20053;-78
2022/05/23 18:39:41;;;;;;;17.95;10.40;;;;;;;19.27;80.07;99560.50;10369034;28;20053;-79
2022/05/23 18:44:44;;;;;;;16.40;10.70;;;;;;;19.19;80.53;99552.06;10370272;28;20046;-79
2022/05/23 18:49:46;;;;;;;16.58;11.90;;;;;;;18.73;81.67;99563.88;10369701;28;20054;-80
2022/05/23 18:54:48;;;;;;;13.45;9.60;;;;;;;18.20;82.12;99579.22;10352126;28;20053;-80
2022/05/23 18:59:53;;;;;;;13.48;9.18;;;;;;;17.95;82.82;99586.81;10397283;28;20045;-79
2022/05/23 19:04:55;;;;;;;11.85;8.98;;;;;;;17.65;83.43;99594.47;10408234;28;20049;-79
2022/05/23 19:09:58;;;;;;;13.57;8.30;;;;;;;17.81;83.16;99607.13;10410710;28;20099;-79
2022/05/23 19:14:59;;;;;;;12.95;8.18;;;;;;;17.49;83.75;99630.44;10409014;28;20571;-79
2022/05/23 19:20:02;;;;;;;11.15;8.00;;;;;;;17.15;83.98;99640.75;10409730;28;20061;-79
2022/05/23 19:25:04;;;;;;;8.98;8.02;;;;;;;16.91;84.00;99642.94;10409406;28;20045;-79
2022/05/23 19:30:06;;;;;;;10.90;8.23;;;;;;;16.77;84.49;99657.09;10408266;28;20049;-79
2022/05/23 19:35:08;;;;;;;10.98;8.02;;;;;;;16.79;84.34;99665.69;10409913;28;20053;-80
2022/05/23 19:40:11;;;;;;;12.55;8.50;;;;;;;16.62;84.78;99697.22;10407345;28;20128;-79
2022/05/23 19:45:13;;;;;;;13.07;9.35;;;;;;;16.41;84.99;99721.00;10407940;28;20435;-80
2022/05/23 19:50:15;;;;;;;16.70;11.50;;;;;;;16.10;85.46;99752.69;10408629;28;20140;-79
2022/05/23 19:55:20;;;;;;;18.23;13.20;;;;;;;15.52;84.62;99766.47;10407437;28;20409;-79
2022/05/23 20:00:23;;;;;;;18.90;13.80;;;;;;;15.32;85.12;99778.81;10408357;28;20489;-79
2022/05/23 20:10:45;;;;;;;16.60;11.93;;;;;;;15.18;85.91;99823.94;10408753;28;20049;-79
2022/05/23 20:15:56;;;;;;;16.95;11.05;;;;;;;15.05;86.20;99837.91;10415632;28;20041;-79
2022/05/23 20:20:58;;;;;;;14.43;8.95;;;;;;;14.89;86.33;99858.78;10415757;28;20045;-80
2022/05/23 20:26:01;;;;;;;12.68;8.25;;;;;;;14.80;86.39;99864.03;10415620;28;20103;-79
2022/05/23 20:31:03;;;;;;;12.27;8.20;;;;;;;14.69;85.59;99881.44;10415578;28;20056;-79
2022/05/23 20:36:04;;;;;;;11.95;8.50;;;;;;;14.64;85.99;99893.50;10414090;28;20076;-79
2022/05/23 20:41:06;;;;;;;11.75;7.80;;;;;;;14.50;85.95;99907.44;10414659;28;20058;-79
2022/05/23 20:46:26;;;;;;;10.65;7.45;;;;;;;14.54;86.36;99914.34;10415098;28;20041;-78
2022/05/23 20:51:28;;;;;;;10.10;6.83;;;;;;;14.55;86.27;99931.63;10413132;28;20053;-79
2022/05/23 20:56:31;;;;;;;7.90;5.30;;;;;;;14.32;86.21;99923.94;10414764;28;20052;-80
2022/05/23 21:01:52;;;;;;;6.60;4.15;;;;;;;14.25;85.85;99941.28;10413906;28;20045;-79
2022/05/23 21:06:59;;;;;;;7.32;4.05;;;;;;;14.33;85.94;99955.91;10415282;28;20049;-86
2022/05/23 21:12:03;;;;;;;5.28;3.75;;;;;;;14.34;85.43;99965.38;10398641;28;20053;-84
2022/05/23 21:17:08;;;;;;;6.85;4.28;;;;;;;14.22;85.78;99966.31;10414942;28;20049;-85
2022/05/23 21:22:12;;;;;;;6.68;4.25;;;;;;;14.34;85.42;99973.16;10414610;28;20053;-87
2022/05/23 21:27:15;;;;;;;7.57;5.05;;;;;;;14.24;85.85;99978.41;10414922;28;20456;-85
2022/05/23 21:32:18;;;;;;;10.93;6.20;;;;;;;14.12;85.38;99983.59;10415061;28;20144;-88
2022/05/23 21:37:20;;;;;;;11.90;6.63;;;;;;;14.17;84.95;99994.84;10417326;28;20056;-89
2022/05/23 21:47:43;;;;;;;10.35;6.65;;;;;;;14.05;84.69;99994.84;10415637;28;20053;-86
2022/05/23 21:52:44;;;;;;;10.88;7.50;;;;;;;14.04;84.77;99999.19;10415805;28;20042;-88
2022/05/23 21:57:46;;;;;;;14.10;7.88;;;;;;;13.99;84.67;100010.41;10416417;28;20053;-87
2022/05/23 22:02:49;;;;;;;13.40;8.25;;;;;;;14.09;84.44;100014.72;10420312;28;20107;-88
2022/05/23 22:07:51;;;;;;;13.90;8.25;;;;;;;14.05;84.56;100007.81;10416999;28;20048;-88
2022/05/23 22:12:53;;;;;;;11.98;8.27;;;;;;;14.11;84.02;100013.00;10416917;28;20052;-88
2022/05/23 22:17:56;;;;;;;14.05;8.13;;;;;;;14.12;84.27;100019.88;10417486;28;20081;-87
2022/05/23 22:22:58;;;;;;;16.23;8.50;;;;;;;14.13;84.30;100031.97;10399530;28;20045;-88
2022/05/23 22:28:00;;;;;;;14.30;8.52;;;;;;;14.11;83.58;100020.75;10400321;28;20057;-87
2022/05/23 22:33:05;;;;;;;14.57;9.23;;;;;;;13.99;83.64;100023.38;10417250;28;20049;-88
2022/05/23 22:38:07;;;;;;;15.40;10.15;;;;;;;14.10;84.25;100027.66;10416623;28;20041;-87
2022/05/23 22:43:08;;;;;;;20.90;11.52;;;;;;;14.11;83.82;100028.53;10415490;28;20481;-88
2022/05/23 22:48:10;;;;;;;18.70;12.38;;;;;;;14.06;83.82;100035.44;10416385;28;20068;-87
2022/05/23 22:53:12;;;;;;;18.33;11.90;;;;;;;13.97;83.91;100041.50;10415063;28;20497;-88
2022/05/23 22:58:15;;;;;;;18.52;11.57;;;;;;;14.17;83.68;100049.25;10414697;28;20049;-86
2022/05/23 23:08:44;;;;;;;21.45;12.10;;;;;;;14.16;83.28;100046.63;10414376;28;20390;-86
2022/05/23 23:13:46;;;;;;;19.40;12.65;;;;;;;14.33;82.65;100054.38;10412456;28;20111;-87
2022/05/23 23:18:48;;;;;;;20.65;12.00;;;;;;;14.40;82.46;100058.66;10412117;28;20053;-87
2022/05/23 23:23:49;;;;;;;21.48;12.15;;;;;;;14.34;82.66;100071.63;10412689;28;20080;-86
2022/05/23 23:28:51;;;;;;;20.40;13.23;;;;;;;14.40;82.64;100063.84;10412120;28;20041;-86
2022/05/23 23:39:15;;;;;;;20.23;12.07;;;;;;;14.23;83.16;100064.75;10415021;28;20049;-88
2022/05/23 23:44:17;;;;;;;19.63;12.52;;;;;;;14.09;83.70;100061.34;10429688;28;20041;-87
2022/05/23 23:49:18;;;;;;;19.83;11.80;;;;;;;14.04;84.30;100057.88;10419730;28;20481;-86
2022/05/23 23:54:20;;;;;;;20.33;13.57;;;;;;;14.11;84.38;100059.63;10421528;28;20045;-87
2022/05/23 23:59:22;;;;;;;24.13;13.55;;;;;;;14.13;85.00;100063.03;10425670;28;20045;-85
